createdAt,value
2023-02-15T00:00:11.507Z,87.51
2023-02-15T00:02:44.197Z,86.83
2023-02-15T00:05:16.833Z,87.24
2023-02-15T00:07:49.367Z,87.23
2023-02-15T00:10:21.834Z,87.00
2023-02-15T00:12:54.362Z,87.27
2023-02-15T00:15:27.063Z,86.67
2023-02-15T00:17:59.542Z,86.83
2023-02-15T00:20:32.040Z,87.09
2023-02-15T00:23:04.578Z,86.62
2023-02-15T00:25:37.066Z,87.01
2023-02-15T00:28:09.574Z,86.64
2023-02-15T00:30:42.089Z,87.80
2023-02-15T00:33:14.587Z,86.91
2023-02-15T00:35:47.144Z,86.75
2023-02-15T00:38:19.669Z,87.77
2023-02-15T00:40:57.873Z,87.40
2023-02-15T00:43:32.613Z,87.47
2023-02-15T00:46:06.311Z,87.35
2023-02-15T00:48:38.843Z,87.02
2023-02-15T00:51:11.418Z,86.91
2023-02-15T00:53:47.871Z,86.50
2023-02-15T00:56:20.844Z,86.79
2023-02-15T00:58:53.287Z,86.44
2023-02-15T01:01:26.827Z,86.92
2023-02-15T01:03:59.534Z,87.36
2023-02-15T01:06:32.100Z,87.23
2023-02-15T01:09:04.730Z,87.80
2023-02-15T01:11:37.215Z,88.12
2023-02-15T01:14:09.836Z,87.66
2023-02-15T01:16:42.311Z,87.89
2023-02-15T01:19:14.866Z,87.73
2023-02-15T01:21:47.377Z,88.19
2023-02-15T01:24:19.892Z,88.02
2023-02-15T01:26:52.365Z,88.07
2023-02-15T01:29:24.961Z,88.19
2023-02-15T01:31:57.572Z,87.47
2023-02-15T01:34:31.106Z,87.74
2023-02-15T01:37:03.708Z,87.69
2023-02-15T01:39:36.264Z,87.45
2023-02-15T01:42:12.929Z,87.43
2023-02-15T01:44:52.889Z,88.19
2023-02-15T01:47:49.054Z,87.83
2023-02-15T01:50:45.119Z,87.23
2023-02-15T01:53:37.892Z,87.57
2023-02-15T01:56:20.927Z,88.27
2023-02-15T01:58:58.798Z,87.70
2023-02-15T02:01:31.770Z,87.67
2023-02-15T02:04:26.522Z,87.73
2023-02-15T02:07:01.039Z,88.08
2023-02-15T02:09:33.535Z,87.67
2023-02-15T02:12:07.926Z,88.20
2023-02-15T02:14:43.035Z,87.87
2023-02-15T02:17:49.302Z,88.19
2023-02-15T02:20:49.912Z,87.34
2023-02-15T02:23:56.514Z,87.92
2023-02-15T02:27:19.228Z,87.96
2023-02-15T02:30:06.920Z,88.07
2023-02-15T02:33:09.804Z,88.03
2023-02-15T02:36:11.534Z,88.47
2023-02-15T02:39:29.730Z,88.31
2023-02-15T02:42:10.883Z,87.91
2023-02-15T02:44:59.506Z,88.16
2023-02-15T02:47:48.428Z,87.92
2023-02-15T02:50:29.759Z,88.50
2023-02-15T02:53:02.419Z,88.00
2023-02-15T02:55:52.811Z,88.55
2023-02-15T02:58:53.886Z,88.38
2023-02-15T03:01:40.389Z,88.15
2023-02-15T03:04:25.207Z,88.72
2023-02-15T03:07:03.771Z,88.31
2023-02-15T03:09:45.395Z,88.59
2023-02-15T03:12:29.081Z,88.29
2023-02-15T03:15:06.667Z,88.94
2023-02-15T03:17:45.381Z,88.99
2023-02-15T03:20:33.330Z,89.35
2023-02-15T03:23:16.456Z,88.78
2023-02-15T03:26:09.453Z,88.82
2023-02-15T03:28:47.483Z,88.67
2023-02-15T03:31:26.524Z,89.22
2023-02-15T03:34:05.581Z,89.50
2023-02-15T03:36:50.241Z,89.11
2023-02-15T03:39:38.053Z,89.77
2023-02-15T03:42:34.777Z,89.33
2023-02-15T03:45:16.608Z,89.30
2023-02-15T03:47:53.303Z,89.39
2023-02-15T03:50:48.855Z,88.81
2023-02-15T03:53:25.368Z,89.24
2023-02-15T03:55:57.949Z,89.38
2023-02-15T03:58:49.154Z,89.28
2023-02-15T04:01:44.850Z,89.78
2023-02-15T04:04:25.264Z,89.08
2023-02-15T04:06:58.108Z,89.74
2023-02-15T04:09:49.271Z,89.66
2023-02-15T04:12:22.150Z,89.88
2023-02-15T04:15:13.076Z,89.00
2023-02-15T04:17:45.593Z,89.47
2023-02-15T04:20:36.582Z,88.90
2023-02-15T04:23:27.976Z,88.76
2023-02-15T04:26:05.593Z,88.59
2023-02-15T04:28:38.127Z,88.75
2023-02-15T04:31:10.858Z,88.68
2023-02-15T04:33:44.634Z,89.39
2023-02-15T04:36:17.193Z,89.13
2023-02-15T04:38:49.670Z,88.84
2023-02-15T04:41:22.173Z,88.49
2023-02-15T04:43:54.680Z,88.52
2023-02-15T04:46:28.913Z,88.97
2023-02-15T04:49:01.500Z,88.97
2023-02-15T04:51:33.986Z,89.04
2023-02-15T04:54:06.636Z,88.51
2023-02-15T04:56:39.891Z,89.49
2023-02-15T04:59:13.734Z,89.20
2023-02-15T05:01:46.289Z,89.14
2023-02-15T05:04:19.104Z,89.39
2023-02-15T05:06:51.681Z,89.23
2023-02-15T05:09:24.252Z,89.29
2023-02-15T05:11:56.746Z,90.28
2023-02-15T05:14:29.224Z,90.24
2023-02-15T05:17:04.101Z,90.58
2023-02-15T05:19:36.612Z,90.72
2023-02-15T05:22:09.210Z,91.02
2023-02-15T05:25:00.203Z,90.87
2023-02-15T05:27:51.490Z,90.13
2023-02-15T05:30:24.178Z,89.79
2023-02-15T05:32:56.843Z,89.74
2023-02-15T05:35:29.439Z,89.89
2023-02-15T05:38:02.020Z,89.87
2023-02-15T05:40:34.724Z,89.46
2023-02-15T05:43:07.218Z,90.45
2023-02-15T05:45:39.920Z,89.67
2023-02-15T05:48:12.451Z,89.40
2023-02-15T05:50:45.770Z,90.26
2023-02-15T05:53:18.254Z,89.37
2023-02-15T05:55:50.855Z,90.11
2023-02-15T05:58:23.744Z,89.75
2023-02-15T06:00:56.520Z,89.64
2023-02-15T06:03:29.776Z,89.64
2023-02-15T06:06:03.794Z,89.79
2023-02-15T06:08:38.956Z,89.91
2023-02-15T06:11:11.880Z,89.25
2023-02-15T06:13:44.449Z,89.89
2023-02-15T06:16:17.166Z,90.20
2023-02-15T06:18:49.762Z,90.16
2023-02-15T06:21:22.459Z,90.47
2023-02-15T06:23:55.063Z,89.83
2023-02-15T06:26:27.524Z,90.19
2023-02-15T06:29:00.117Z,91.24
2023-02-15T06:31:32.838Z,90.37
2023-02-15T06:34:05.834Z,90.96
2023-02-15T06:36:38.343Z,90.57
2023-02-15T06:39:10.854Z,90.01
2023-02-15T06:41:43.404Z,89.87
2023-02-15T06:44:16.005Z,89.64
2023-02-15T06:46:49.727Z,89.93
2023-02-15T06:49:22.433Z,90.48
2023-02-15T06:51:54.940Z,90.78
2023-02-15T06:54:27.440Z,90.23
2023-02-15T06:56:59.916Z,90.78
2023-02-15T06:59:32.442Z,90.69
2023-02-15T07:02:05.058Z,90.47
2023-02-15T07:04:37.609Z,90.58
2023-02-15T07:07:12.389Z,90.56
2023-02-15T07:09:44.987Z,90.56
2023-02-15T07:12:36.049Z,90.31
2023-02-15T07:15:10.379Z,90.49
2023-02-15T07:17:43.806Z,90.54
2023-02-15T07:20:25.566Z,90.71
2023-02-15T07:22:58.261Z,90.29
2023-02-15T07:25:32.018Z,91.34
2023-02-15T07:28:05.562Z,91.13
2023-02-15T07:30:38.109Z,90.40
2023-02-15T07:33:25.641Z,91.57
2023-02-15T07:36:03.000Z,90.76
2023-02-15T07:38:39.106Z,90.81
2023-02-15T07:41:15.356Z,91.04
2023-02-15T07:43:47.891Z,90.45
2023-02-15T07:46:21.840Z,90.75
2023-02-15T07:48:54.716Z,90.49
2023-02-15T07:51:27.239Z,90.19
2023-02-15T07:53:59.844Z,89.82
2023-02-15T07:56:34.347Z,90.43
2023-02-15T07:59:09.090Z,90.53
2023-02-15T08:01:41.623Z,90.01
2023-02-15T08:04:14.244Z,90.41
2023-02-15T08:06:46.752Z,90.11
2023-02-15T08:09:19.267Z,89.54
2023-02-15T08:11:51.766Z,89.49
2023-02-15T08:14:24.333Z,89.16
2023-02-15T08:17:03.694Z,88.70
2023-02-15T08:19:36.649Z,88.74
2023-02-15T08:22:14.910Z,88.65
2023-02-15T08:24:47.578Z,87.64
2023-02-15T08:27:27.566Z,87.55
2023-02-15T08:30:00.149Z,87.30
2023-02-15T08:32:32.704Z,86.11
2023-02-15T08:35:06.015Z,86.04
2023-02-15T08:37:38.468Z,85.38
2023-02-15T08:40:14.255Z,84.71
2023-02-15T08:42:46.759Z,84.12
2023-02-15T08:45:19.313Z,83.02
2023-02-15T08:47:51.980Z,82.94
2023-02-15T08:50:24.474Z,82.37
2023-02-15T08:52:57.071Z,81.70
2023-02-15T08:55:29.594Z,80.83
2023-02-15T08:58:02.134Z,80.50
2023-02-15T09:00:34.952Z,80.06
2023-02-15T09:03:07.453Z,79.91
2023-02-15T09:05:39.928Z,79.30
2023-02-15T09:08:12.482Z,79.50
2023-02-15T09:10:44.974Z,79.23
2023-02-15T09:13:17.755Z,78.38
2023-02-15T09:15:50.252Z,77.41
2023-02-15T09:18:22.783Z,77.68
2023-02-15T09:20:56.310Z,76.64
2023-02-15T09:23:29.056Z,76.60
2023-02-15T09:26:08.278Z,76.91
2023-02-15T09:28:41.484Z,75.20
2023-02-15T09:31:27.262Z,75.01
2023-02-15T09:34:02.280Z,75.12
2023-02-15T09:36:38.958Z,74.46
2023-02-15T09:39:39.859Z,73.94
2023-02-15T09:42:58.229Z,73.13
2023-02-15T09:46:26.571Z,73.32
2023-02-15T09:49:12.938Z,72.83
2023-02-15T09:52:43.937Z,72.45
2023-02-15T09:55:23.008Z,72.06
2023-02-15T09:58:39.842Z,70.18
2023-02-15T10:01:57.411Z,70.18
2023-02-15T10:04:48.342Z,69.33
2023-02-15T10:07:56.210Z,68.94
2023-02-15T10:10:50.153Z,69.15
2023-02-15T10:13:55.423Z,69.25
2023-02-15T10:16:42.804Z,68.12
2023-02-15T10:19:32.231Z,67.47
2023-02-15T10:22:54.854Z,67.35
2023-02-15T10:25:50.924Z,66.70
2023-02-15T10:28:49.067Z,66.30
2023-02-15T10:32:07.315Z,65.80
2023-02-15T10:34:51.681Z,65.73
2023-02-15T10:38:00.749Z,65.14
2023-02-15T10:41:03.514Z,65.10
2023-02-15T10:44:07.384Z,64.99
2023-02-15T10:46:52.722Z,64.10
2023-02-15T10:50:07.476Z,63.81
2023-02-15T10:53:09.659Z,62.76
2023-02-15T10:56:10.583Z,62.52
2023-02-15T10:59:27.668Z,61.75
2023-02-15T11:02:18.779Z,60.11
2023-02-15T11:05:30.262Z,58.28
2023-02-15T11:08:08.850Z,57.42
2023-02-15T11:11:01.987Z,56.76
2023-02-15T11:13:42.964Z,56.97
2023-02-15T11:16:30.698Z,57.05
2023-02-15T11:19:25.144Z,56.80
2023-02-15T11:22:03.510Z,56.66
2023-02-15T11:24:44.247Z,56.72
2023-02-15T11:27:36.009Z,56.50
2023-02-15T11:30:16.402Z,56.20
2023-02-15T11:32:55.758Z,56.45
2023-02-15T11:35:37.872Z,56.34
2023-02-15T11:38:21.787Z,55.69
2023-02-15T11:41:01.189Z,54.94
2023-02-15T11:43:39.364Z,54.84
2023-02-15T11:46:14.193Z,55.33
2023-02-15T11:48:46.751Z,55.50
2023-02-15T11:51:24.022Z,55.19
2023-02-15T11:53:57.347Z,55.27
2023-02-15T11:56:34.136Z,54.93
2023-02-15T11:59:28.726Z,55.20
2023-02-15T12:02:01.395Z,55.41
2023-02-15T12:04:49.735Z,54.77
2023-02-15T12:07:49.440Z,55.22
2023-02-15T12:10:30.067Z,55.07
2023-02-15T12:13:20.198Z,54.31
2023-02-15T12:15:58.269Z,54.30
2023-02-15T12:18:45.394Z,54.71
2023-02-15T12:21:40.467Z,53.89
2023-02-15T12:24:28.889Z,53.41
2023-02-15T12:27:17.272Z,52.49
2023-02-15T12:29:57.709Z,51.30
2023-02-15T12:32:36.701Z,51.54
2023-02-15T12:35:25.787Z,51.55
2023-02-15T12:38:21.661Z,50.95
2023-02-15T12:41:26.182Z,50.91
2023-02-15T12:44:25.084Z,50.40
2023-02-15T12:47:16.727Z,50.62
2023-02-15T12:50:34.589Z,49.95
2023-02-15T12:53:24.447Z,49.86
2023-02-15T12:56:09.977Z,49.87
2023-02-15T12:58:47.023Z,49.46
2023-02-15T13:01:26.461Z,49.95
2023-02-15T13:04:23.131Z,50.26
2023-02-15T13:07:02.246Z,49.64
2023-02-15T13:09:41.198Z,49.57
2023-02-15T13:12:31.518Z,49.54
2023-02-15T13:15:24.891Z,49.38
2023-02-15T13:18:01.171Z,49.54
2023-02-15T13:20:37.469Z,49.13
2023-02-15T13:23:28.577Z,49.13
2023-02-15T13:26:11.890Z,48.98
2023-02-15T13:28:59.464Z,49.06
2023-02-15T13:31:34.194Z,48.90
2023-02-15T13:34:32.488Z,49.35
2023-02-15T13:37:32.769Z,49.36
2023-02-15T13:40:20.607Z,49.42
2023-02-15T13:43:02.203Z,48.85
2023-02-15T13:45:58.273Z,49.37
2023-02-15T13:48:50.835Z,48.92
2023-02-15T13:51:36.251Z,48.80
2023-02-15T13:54:43.223Z,49.83
2023-02-15T13:58:02.356Z,48.97
2023-02-15T14:01:11.301Z,48.54
2023-02-15T14:04:30.377Z,48.59
2023-02-15T14:07:29.557Z,48.34
2023-02-15T14:10:34.787Z,48.87
2023-02-15T14:13:25.482Z,49.19
2023-02-15T14:16:20.891Z,48.92
2023-02-15T14:19:34.258Z,49.72
2023-02-15T14:22:36.367Z,49.53
2023-02-15T14:25:31.225Z,50.40
2023-02-15T14:28:27.812Z,50.06
2023-02-15T14:31:04.742Z,50.33
2023-02-15T14:33:50.328Z,50.39
2023-02-15T14:36:25.964Z,50.54
2023-02-15T14:39:51.507Z,50.22
2023-02-15T14:42:41.291Z,50.71
2023-02-15T14:45:33.832Z,50.52
2023-02-15T14:48:25.708Z,50.58
2023-02-15T14:50:58.725Z,50.79
2023-02-15T14:53:31.869Z,50.86
2023-02-15T14:56:08.934Z,50.72
2023-02-15T14:58:50.595Z,51.06
2023-02-15T15:01:39.274Z,51.33
2023-02-15T15:04:28.590Z,51.69
2023-02-15T15:07:13.118Z,51.52
2023-02-15T15:09:59.707Z,52.19
2023-02-15T15:12:35.299Z,52.33
2023-02-15T15:15:13.623Z,52.59
2023-02-15T15:17:53.358Z,51.83
2023-02-15T15:20:45.736Z,52.15
2023-02-15T15:23:21.006Z,52.12
2023-02-15T15:26:15.267Z,52.32
2023-02-15T15:28:47.733Z,52.04
2023-02-15T15:31:56.979Z,52.98
2023-02-15T15:35:02.260Z,52.55
2023-02-15T15:38:22.830Z,53.93
2023-02-15T15:41:19.719Z,53.22
2023-02-15T15:44:04.096Z,53.70
2023-02-15T15:46:54.840Z,53.81
2023-02-15T15:49:33.191Z,54.82
2023-02-15T15:52:19.088Z,54.58
2023-02-15T15:54:58.184Z,54.58
2023-02-15T15:57:43.881Z,54.73
2023-02-15T16:00:45.317Z,54.84
2023-02-15T16:03:28.845Z,54.52
2023-02-15T16:06:02.156Z,55.03
2023-02-15T16:08:40.841Z,55.94
2023-02-15T16:11:30.184Z,55.82
2023-02-15T16:14:03.118Z,55.72
2023-02-15T16:16:35.916Z,56.16
2023-02-15T16:19:22.778Z,56.32
2023-02-15T16:21:59.841Z,57.02
2023-02-15T16:25:23.327Z,56.97
2023-02-15T16:27:56.054Z,57.83
2023-02-15T16:30:33.248Z,57.72
2023-02-15T16:33:18.268Z,57.89
2023-02-15T16:36:03.989Z,58.44
2023-02-15T16:38:42.771Z,58.62
2023-02-15T16:41:31.004Z,58.60
2023-02-15T16:44:21.624Z,59.74
2023-02-15T16:46:55.426Z,59.50
2023-02-15T16:49:30.654Z,59.77
2023-02-15T16:52:07.964Z,59.96
2023-02-15T16:54:43.970Z,60.15
2023-02-15T16:57:22.982Z,59.94
2023-02-15T17:00:07.075Z,60.97
2023-02-15T17:02:55.604Z,61.25
2023-02-15T17:05:41.353Z,60.99
2023-02-15T17:08:31.292Z,61.81
2023-02-15T17:11:35.370Z,62.96
2023-02-15T17:14:09.618Z,62.53
2023-02-15T17:16:50.976Z,63.22
2023-02-15T17:19:32.159Z,63.38
2023-02-15T17:22:07.743Z,64.13
2023-02-15T17:24:43.829Z,65.17
2023-02-15T17:27:25.939Z,64.67
2023-02-15T17:30:04.376Z,65.24
2023-02-15T17:32:38.990Z,65.94
2023-02-15T17:35:21.192Z,65.63
2023-02-15T17:38:18.991Z,65.91
2023-02-15T17:40:51.508Z,66.32
2023-02-15T17:43:23.996Z,66.97
2023-02-15T17:45:58.834Z,67.47
2023-02-15T17:48:37.949Z,67.54
2023-02-15T17:51:14.800Z,68.00
2023-02-15T17:54:26.599Z,68.13
2023-02-15T17:57:05.387Z,68.88
2023-02-15T17:59:56.427Z,69.05
2023-02-15T18:02:53.996Z,69.42
2023-02-15T18:05:45.074Z,69.57
2023-02-15T18:08:44.514Z,69.85
2023-02-15T18:11:35.658Z,69.92
2023-02-15T18:14:10.836Z,70.33
2023-02-15T18:16:45.795Z,70.94
2023-02-15T18:19:25.561Z,70.66
2023-02-15T18:21:58.156Z,71.18
2023-02-15T18:24:30.669Z,71.12
2023-02-15T18:27:05.755Z,71.14
2023-02-15T18:29:39.067Z,71.20
2023-02-15T18:32:40.212Z,71.57
2023-02-15T18:35:23.077Z,71.76
2023-02-15T18:37:56.460Z,72.21
2023-02-15T18:40:30.166Z,72.26
2023-02-15T18:43:02.725Z,72.51
2023-02-15T18:45:37.225Z,72.23
2023-02-15T18:48:10.063Z,72.46
2023-02-15T18:50:42.759Z,72.07
2023-02-15T18:53:21.139Z,72.50
2023-02-15T18:55:53.837Z,72.48
2023-02-15T18:58:27.932Z,72.97
2023-02-15T19:01:01.047Z,73.19
2023-02-15T19:03:33.844Z,73.53
2023-02-15T19:06:12.830Z,73.69
2023-02-15T19:08:49.072Z,74.08
2023-02-15T19:11:25.019Z,74.20
2023-02-15T19:13:57.520Z,74.23
2023-02-15T19:16:34.746Z,74.58
2023-02-15T19:19:07.501Z,74.67
2023-02-15T19:21:40.138Z,74.60
2023-02-15T19:24:20.033Z,74.69
2023-02-15T19:26:52.980Z,74.54
2023-02-15T19:29:29.424Z,74.82
2023-02-15T19:32:02.079Z,75.13
2023-02-15T19:34:34.737Z,74.67
2023-02-15T19:37:20.206Z,74.07
2023-02-15T19:39:53.180Z,74.54
2023-02-15T19:42:25.919Z,74.14
2023-02-15T19:44:58.548Z,74.07
2023-02-15T19:47:31.036Z,73.14
2023-02-15T19:50:04.840Z,72.66
2023-02-15T19:52:37.448Z,72.70
2023-02-15T19:55:24.141Z,72.58
2023-02-15T19:57:59.529Z,72.98
2023-02-15T20:00:34.167Z,72.87
2023-02-15T20:03:06.746Z,72.65
2023-02-15T20:05:40.084Z,73.40
2023-02-15T20:08:23.148Z,73.07
2023-02-15T20:10:58.785Z,73.33
2023-02-15T20:13:31.740Z,73.38
2023-02-15T20:16:08.474Z,73.37
2023-02-15T20:18:44.589Z,73.89
2023-02-15T20:21:19.083Z,73.96
2023-02-15T20:23:51.619Z,73.69
2023-02-15T20:26:29.566Z,73.59
2023-02-15T20:29:02.410Z,74.18
2023-02-15T20:31:35.011Z,74.30
2023-02-15T20:34:08.061Z,73.87
2023-02-15T20:36:41.792Z,74.11
2023-02-15T20:39:20.431Z,73.87
2023-02-15T20:41:53.037Z,73.62
2023-02-15T20:44:29.183Z,74.10
2023-02-15T20:47:02.683Z,73.83
2023-02-15T20:49:37.000Z,74.29
2023-02-15T20:52:20.653Z,74.70
2023-02-15T20:54:53.191Z,75.14
2023-02-15T20:57:25.809Z,74.19
2023-02-15T20:59:58.358Z,73.95
2023-02-15T21:02:31.043Z,74.64
2023-02-15T21:05:05.952Z,74.63
2023-02-15T21:07:38.471Z,75.13
2023-02-15T21:10:20.881Z,74.69
2023-02-15T21:12:54.394Z,74.70
2023-02-15T21:15:36.747Z,75.18
2023-02-15T21:18:19.551Z,75.08
2023-02-15T21:20:56.144Z,74.79
2023-02-15T21:23:42.713Z,74.95
2023-02-15T21:26:20.024Z,75.04
2023-02-15T21:28:55.049Z,75.50
2023-02-15T21:31:28.672Z,75.19
2023-02-15T21:34:01.636Z,75.68
2023-02-15T21:36:34.241Z,75.84
2023-02-15T21:39:07.543Z,75.58
2023-02-15T21:41:59.904Z,75.73
2023-02-15T21:44:51.197Z,76.02
2023-02-15T21:47:49.133Z,76.12
2023-02-15T21:50:42.913Z,76.12
2023-02-15T21:53:30.422Z,76.81
2023-02-15T21:56:06.561Z,76.50
2023-02-15T21:58:39.130Z,76.01
2023-02-15T22:01:25.881Z,76.70
2023-02-15T22:03:59.347Z,76.53
2023-02-15T22:06:31.954Z,76.63
2023-02-15T22:09:17.964Z,76.60
2023-02-15T22:11:51.643Z,76.46
2023-02-15T22:14:41.499Z,76.67
2023-02-15T22:17:17.030Z,76.70
2023-02-15T22:19:50.770Z,77.00
2023-02-15T22:22:23.854Z,76.61
2023-02-15T22:24:56.461Z,77.58
2023-02-15T22:27:33.204Z,77.46
2023-02-15T22:30:27.014Z,77.44
2023-02-15T22:33:01.243Z,77.57
2023-02-15T22:35:36.692Z,77.37
2023-02-15T22:38:09.301Z,77.64
2023-02-15T22:40:41.889Z,77.26
2023-02-15T22:43:36.365Z,77.62
2023-02-15T22:46:21.126Z,77.41
2023-02-15T22:48:53.832Z,77.69
2023-02-15T22:51:26.457Z,77.80
2023-02-15T22:53:59.052Z,77.97
2023-02-15T22:56:39.835Z,77.84
2023-02-15T22:59:28.875Z,78.15
2023-02-15T23:02:03.354Z,77.92
2023-02-15T23:04:35.932Z,77.94
2023-02-15T23:07:18.256Z,78.41
2023-02-15T23:09:51.299Z,78.50
2023-02-15T23:12:49.328Z,77.94
2023-02-15T23:15:21.850Z,78.46
2023-02-15T23:17:54.327Z,78.39
2023-02-15T23:20:26.816Z,78.58
2023-02-15T23:22:59.347Z,78.75
2023-02-15T23:25:31.931Z,78.20
2023-02-15T23:28:06.240Z,78.76
2023-02-15T23:30:38.731Z,79.03
2023-02-15T23:33:12.312Z,79.21
2023-02-15T23:35:44.878Z,79.10
2023-02-15T23:38:20.533Z,79.16
2023-02-15T23:41:16.626Z,78.81
2023-02-15T23:43:56.407Z,79.01
2023-02-15T23:46:45.293Z,79.49
2023-02-15T23:49:19.714Z,79.11
2023-02-15T23:51:55.755Z,79.17
2023-02-15T23:54:28.271Z,79.72
2023-02-15T23:57:02.751Z,79.20
2023-02-15T23:59:35.891Z,79.31
